createdAt,value
2023-02-26T00:01:37.920Z,80.74
2023-02-26T00:06:58.044Z,81.07
2023-02-26T00:12:32.757Z,80.13
2023-02-26T00:18:15.764Z,80.09
2023-02-26T00:23:33.675Z,79.43
2023-02-26T00:28:48.910Z,78.33
2023-02-26T00:34:49.789Z,78.36
2023-02-26T00:41:24.340Z,78.53
2023-02-26T00:47:09.343Z,78.14
2023-02-26T00:53:02.211Z,78.46
2023-02-26T00:58:40.445Z,78.78
2023-02-26T01:03:51.951Z,78.68
2023-02-26T01:09:34.689Z,78.01
2023-02-26T01:15:50.240Z,78.01
2023-02-26T01:21:30.700Z,78.15
2023-02-26T01:26:54.677Z,75.21
2023-02-26T01:32:16.481Z,74.93
2023-02-26T01:38:09.295Z,74.75
2023-02-26T01:44:18.697Z,74.18
2023-02-26T01:49:55.647Z,74.46
2023-02-26T01:55:23.067Z,74.43
2023-02-26T02:01:04.511Z,74.78
2023-02-26T02:06:28.185Z,74.71
2023-02-26T02:11:53.151Z,75.16
2023-02-26T02:17:41.992Z,75.09
2023-02-26T02:24:17.603Z,74.41
2023-02-26T02:30:33.281Z,74.17
2023-02-26T02:36:25.159Z,74.38
2023-02-26T02:42:16.869Z,74.12
2023-02-26T02:47:48.647Z,72.29
2023-02-26T02:53:39.797Z,72.29
2023-02-26T02:59:13.918Z,72.10
2023-02-26T03:04:32.767Z,72.74
2023-02-26T03:09:55.276Z,72.71
2023-02-26T03:15:30.906Z,72.04
2023-02-26T03:21:08.111Z,71.93
2023-02-26T03:26:42.753Z,72.60
2023-02-26T03:32:31.746Z,72.79
2023-02-26T03:38:21.161Z,72.79
2023-02-26T03:43:41.968Z,73.26
2023-02-26T03:49:02.431Z,73.10
2023-02-26T03:54:30.439Z,73.04
2023-02-26T03:59:41.718Z,73.16
2023-02-26T04:05:52.600Z,73.36
2023-02-26T04:11:30.136Z,73.65
2023-02-26T04:17:10.861Z,73.69
2023-02-26T04:22:19.163Z,74.22
2023-02-26T04:27:43.240Z,74.39
2023-02-26T04:33:16.855Z,74.56
2023-02-26T04:38:31.892Z,74.73
2023-02-26T04:43:52.247Z,74.86
2023-02-26T04:49:34.788Z,75.18
2023-02-26T04:55:45.750Z,75.38
2023-02-26T05:01:16.837Z,75.51
2023-02-26T05:07:06.352Z,75.86
2023-02-26T05:12:27.987Z,75.90
2023-02-26T05:18:09.755Z,75.85
2023-02-26T05:23:15.477Z,75.93
2023-02-26T05:28:34.144Z,76.27
2023-02-26T05:33:43.249Z,76.21
2023-02-26T05:39:18.268Z,76.32
2023-02-26T05:44:35.528Z,76.33
2023-02-26T05:50:07.887Z,76.18
2023-02-26T05:55:36.834Z,75.67
2023-02-26T06:01:06.035Z,74.46
2023-02-26T06:06:18.157Z,74.41
2023-02-26T06:11:32.953Z,74.14
2023-02-26T06:16:47.900Z,74.34
2023-02-26T06:22:12.971Z,74.21
2023-02-26T06:27:49.654Z,73.83
2023-02-26T06:32:52.917Z,73.60
2023-02-26T06:38:11.916Z,72.99
2023-02-26T06:43:40.463Z,73.50
2023-02-26T06:48:46.214Z,73.90
2023-02-26T06:53:52.498Z,73.63
2023-02-26T06:59:10.140Z,73.69
2023-02-26T07:04:16.022Z,73.87
2023-02-26T07:09:54.440Z,73.88
2023-02-26T07:15:09.063Z,73.75
2023-02-26T07:20:18.437Z,73.81
2023-02-26T07:25:34.891Z,73.52
2023-02-26T07:30:46.172Z,73.72
2023-02-26T07:35:49.490Z,73.95
2023-02-26T07:40:59.033Z,73.11
2023-02-26T07:46:25.526Z,72.44
2023-02-26T07:51:30.967Z,72.01
2023-02-26T07:56:47.239Z,70.99
2023-02-26T08:02:08.104Z,70.93
2023-02-26T08:07:20.524Z,70.14
2023-02-26T08:12:45.215Z,70.68
2023-02-26T08:18:14.446Z,70.76
2023-02-26T08:29:41.323Z,71.08
2023-02-26T08:34:49.643Z,71.75
2023-02-26T08:40:14.188Z,71.39
2023-02-26T08:45:55.196Z,71.60
2023-02-26T08:51:01.922Z,71.50
2023-02-26T08:56:11.394Z,71.21
2023-02-26T09:01:14.700Z,71.61
2023-02-26T09:06:23.973Z,70.83
2023-02-26T09:11:56.901Z,71.17
2023-02-26T09:17:06.206Z,71.07
2023-02-26T09:22:15.000Z,71.41
2023-02-26T09:27:21.594Z,71.47
2023-02-26T09:32:30.193Z,71.50
2023-02-26T09:37:38.631Z,71.25
2023-02-26T09:43:36.634Z,70.98
2023-02-26T09:48:45.437Z,70.38
2023-02-26T09:53:52.639Z,69.72
2023-02-26T09:58:59.351Z,68.56
2023-02-26T10:04:45.338Z,66.98
2023-02-26T10:10:21.785Z,64.52
2023-02-26T10:15:43.837Z,62.96
2023-02-26T10:21:00.212Z,62.53
2023-02-26T10:26:55.747Z,62.03
2023-02-26T10:32:22.049Z,62.22
2023-02-26T10:38:02.881Z,61.81
2023-02-26T10:43:25.165Z,61.55
2023-02-26T10:49:07.743Z,60.06
2023-02-26T10:55:08.324Z,59.95
2023-02-26T11:00:23.439Z,59.74
2023-02-26T11:05:59.542Z,59.32
2023-02-26T11:11:09.818Z,57.83
2023-02-26T11:16:27.661Z,57.92
2023-02-26T11:21:44.559Z,59.14
2023-02-26T11:27:04.215Z,60.41
2023-02-26T11:32:57.479Z,59.94
2023-02-26T11:38:21.511Z,59.04
2023-02-26T11:43:45.122Z,58.95
2023-02-26T11:49:01.906Z,57.45
2023-02-26T11:54:30.399Z,55.90
2023-02-26T11:59:35.057Z,54.97
2023-02-26T12:05:15.495Z,54.31
2023-02-26T12:10:34.739Z,55.83
2023-02-26T12:16:55.407Z,55.67
2023-02-26T12:22:55.944Z,56.35
2023-02-26T12:28:55.928Z,57.40
2023-02-26T12:34:44.486Z,57.17
2023-02-26T12:40:31.126Z,57.85
2023-02-26T12:46:29.600Z,58.49
2023-02-26T12:51:54.699Z,58.49
2023-02-26T12:58:17.798Z,57.92
2023-02-26T13:04:22.596Z,57.90
2023-02-26T13:09:51.609Z,58.29
2023-02-26T13:15:02.510Z,58.41
2023-02-26T13:20:34.511Z,58.26
2023-02-26T13:26:15.589Z,58.40
2023-02-26T13:31:47.717Z,59.95
2023-02-26T13:36:54.802Z,60.40
2023-02-26T13:42:31.115Z,60.56
2023-02-26T13:48:07.800Z,61.49
2023-02-26T13:53:45.494Z,61.80
2023-02-26T13:59:49.561Z,60.92
2023-02-26T14:05:37.266Z,61.16
2023-02-26T14:11:50.819Z,61.28
2023-02-26T14:17:39.663Z,60.99
2023-02-26T14:22:51.419Z,61.15
2023-02-26T14:28:43.054Z,60.26
2023-02-26T14:34:13.498Z,60.14
2023-02-26T14:39:51.019Z,60.13
2023-02-26T14:45:31.169Z,60.88
2023-02-26T14:51:34.265Z,61.33
2023-02-26T14:57:03.644Z,62.31
2023-02-26T15:02:51.456Z,62.55
2023-02-26T15:08:41.101Z,62.85
2023-02-26T15:14:34.745Z,62.88
2023-02-26T15:20:16.749Z,62.58
2023-02-26T15:25:57.355Z,62.67
2023-02-26T15:31:27.797Z,62.96
2023-02-26T15:36:43.452Z,63.28
2023-02-26T15:41:55.149Z,63.38
2023-02-26T15:47:02.948Z,63.71
2023-02-26T15:52:13.704Z,64.11
2023-02-26T15:57:30.564Z,64.58
2023-02-26T16:02:44.326Z,64.89
2023-02-26T16:07:53.380Z,65.06
2023-02-26T16:13:17.144Z,65.31
2023-02-26T16:18:26.488Z,65.82
2023-02-26T16:23:42.030Z,66.13
2023-02-26T16:29:00.403Z,67.76
2023-02-26T16:35:02.050Z,68.82
2023-02-26T16:40:21.931Z,71.68
2023-02-26T16:45:37.009Z,76.28
2023-02-26T16:50:40.714Z,78.14
2023-02-26T16:55:55.337Z,79.75
2023-02-26T17:01:12.732Z,81.07
2023-02-26T17:06:20.457Z,81.33
2023-02-26T17:11:44.348Z,82.22
2023-02-26T17:16:49.135Z,82.65
2023-02-26T17:22:05.588Z,82.38
2023-02-26T17:27:27.487Z,83.43
2023-02-26T17:32:31.659Z,83.38
2023-02-26T17:37:39.637Z,83.32
2023-02-26T17:43:06.041Z,82.14
2023-02-26T17:48:15.512Z,83.38
2023-02-26T17:53:41.018Z,84.16
2023-02-26T17:58:47.066Z,83.68
2023-02-26T18:03:55.033Z,83.40
2023-02-26T18:08:58.097Z,83.25
2023-02-26T18:14:05.683Z,83.43
2023-02-26T18:19:17.128Z,82.83
2023-02-26T18:24:20.555Z,81.83
2023-02-26T18:29:26.632Z,81.67
2023-02-26T18:34:41.802Z,81.86
2023-02-26T18:39:50.943Z,82.47
2023-02-26T18:45:15.083Z,82.72
2023-02-26T18:50:40.918Z,83.52
2023-02-26T18:55:57.033Z,85.55
2023-02-26T19:01:06.773Z,85.56
2023-02-26T19:06:15.382Z,85.54
2023-02-26T19:11:18.408Z,85.33
2023-02-26T19:16:24.623Z,84.64
2023-02-26T19:21:28.386Z,84.47
2023-02-26T19:26:36.252Z,84.71
2023-02-26T19:31:41.842Z,85.07
2023-02-26T19:36:49.355Z,85.77
2023-02-26T19:41:54.043Z,85.85
2023-02-26T19:47:10.681Z,86.36
2023-02-26T19:52:13.864Z,86.43
2023-02-26T19:57:16.874Z,86.35
2023-02-26T20:02:25.490Z,86.96
2023-02-26T20:07:35.426Z,88.50
2023-02-26T20:12:59.107Z,88.38
2023-02-26T20:18:05.009Z,87.70
2023-02-26T20:23:13.051Z,89.25
2023-02-26T20:28:24.996Z,89.82
2023-02-26T20:33:33.329Z,89.15
2023-02-26T20:38:39.505Z,88.80
2023-02-26T20:43:48.417Z,88.55
2023-02-26T20:48:51.417Z,88.63
2023-02-26T20:53:54.822Z,88.89
2023-02-26T20:59:00.076Z,88.85
2023-02-26T21:04:06.524Z,89.19
2023-02-26T21:09:20.660Z,88.92
2023-02-26T21:14:28.588Z,88.82
2023-02-26T21:19:35.262Z,88.89
2023-02-26T21:24:41.551Z,88.93
2023-02-26T21:29:47.605Z,89.00
2023-02-26T21:35:13.570Z,89.03
2023-02-26T21:40:22.789Z,89.35
2023-02-26T21:45:36.333Z,89.77
2023-02-26T21:50:57.754Z,90.43
2023-02-26T21:56:43.893Z,90.21
2023-02-26T22:02:33.336Z,90.46
2023-02-26T22:08:07.373Z,90.88
2023-02-26T22:13:53.587Z,90.95
2023-02-26T22:19:06.638Z,90.33
2023-02-26T22:24:31.924Z,90.17
2023-02-26T22:30:27.436Z,90.41
2023-02-26T22:35:56.303Z,90.63
2023-02-26T22:41:24.929Z,90.38
2023-02-26T22:46:37.047Z,90.13
2023-02-26T22:51:40.193Z,89.82
2023-02-26T22:56:43.682Z,89.69
2023-02-26T23:02:30.120Z,89.47
2023-02-26T23:07:37.798Z,89.79
2023-02-26T23:13:04.462Z,89.90
2023-02-26T23:18:22.793Z,89.78
2023-02-26T23:23:48.770Z,89.54
2023-02-26T23:29:19.458Z,89.07
2023-02-26T23:34:25.125Z,88.67
2023-02-26T23:39:34.838Z,88.43
2023-02-26T23:44:41.231Z,88.44
2023-02-26T23:50:00.958Z,88.60
2023-02-26T23:55:16.102Z,88.54
